Cordova, Alaska
Current Conditions -  °F | °C
As of 8:53 AM on Saturday 22 Nov 2014 (Local Time) from PACV Reporting Station
Light Rain Light Rain  
Wind Chill: 34°   Ceiling: 3000
Heat Index: 39°   Visibility: 10mi
Dew Point: 35°   Wind: 7mph
Humidity: 86%   Direction: 90°E
Pressure: 29.15"   Gusts: NA
Location:  60.54°N, 145.76°W
Report Text: PACV 221753Z 09006KT 10SM -RA SCT023 BKN030 OVC043 04/02 A2915 RMK AO2 RAB02 SLP870 P0004 60004 T00390017 10056 20039 53012 $
Loading
Personal Weather Stations






























Interactive Weather Map New forecast layout! Learn more

10-Day Weather Forecast

Advertisements
Track Severe Weather on mobile